createdAt,value
2024-03-26T00:00:49.469Z,5.0347
2024-03-26T00:01:52.273Z,5.0088
2024-03-26T00:02:55.032Z,4.9871
2024-03-26T00:03:57.708Z,4.9711
2024-03-26T00:05:00.398Z,4.9540
2024-03-26T00:06:03.123Z,4.9376
2024-03-26T00:07:05.869Z,4.9218
2024-03-26T00:08:08.534Z,4.9034
2024-03-26T00:09:11.257Z,4.8854
2024-03-26T00:10:14.013Z,4.8708
2024-03-26T00:11:16.736Z,4.8619
2024-03-26T00:12:19.524Z,4.8514
2024-03-26T00:13:22.184Z,4.8375
2024-03-26T00:14:24.953Z,4.8181
2024-03-26T00:15:27.618Z,4.8039
2024-03-26T00:16:30.335Z,4.7922
2024-03-26T00:17:33.017Z,4.7835
2024-03-26T00:18:35.763Z,4.7795
2024-03-26T00:19:38.506Z,4.7737
2024-03-26T00:20:41.184Z,4.7588
2024-03-26T00:21:43.962Z,4.7471
2024-03-26T00:22:46.659Z,4.7379
2024-03-26T00:23:49.346Z,4.7321
2024-03-26T00:24:52.026Z,4.7279
2024-03-26T00:25:54.747Z,4.7218
2024-03-26T00:26:57.562Z,4.7133
2024-03-26T00:28:00.280Z,4.7056
2024-03-26T00:29:02.942Z,4.6951
2024-03-26T00:30:05.702Z,4.6823
2024-03-26T00:31:08.435Z,4.6707
2024-03-26T00:32:11.477Z,4.6599
2024-03-26T00:33:14.223Z,4.6428
2024-03-26T00:34:16.889Z,4.6093
2024-03-26T00:35:19.627Z,4.5723
2024-03-26T00:36:22.457Z,4.5452
2024-03-26T00:37:25.150Z,4.5311
2024-03-26T00:38:27.893Z,4.5193
2024-03-26T00:39:30.629Z,4.5092
2024-03-26T00:40:33.312Z,4.4978
2024-03-26T00:41:36.004Z,4.4830
2024-03-26T00:42:38.651Z,4.4664
2024-03-26T00:43:41.388Z,4.4495
2024-03-26T00:44:44.097Z,4.4411
2024-03-26T00:45:46.820Z,4.4359
2024-03-26T00:46:49.503Z,4.4281
2024-03-26T00:47:52.264Z,4.4198
2024-03-26T00:48:54.941Z,4.4128
2024-03-26T00:49:57.698Z,4.3981
2024-03-26T00:51:00.417Z,4.3738
2024-03-26T00:52:03.177Z,4.3417
2024-03-26T00:53:05.867Z,4.3213
2024-03-26T00:54:08.576Z,4.3097
2024-03-26T00:55:11.242Z,4.2961
2024-03-26T00:56:14.017Z,4.2815
2024-03-26T00:57:16.720Z,4.2704
2024-03-26T00:58:19.458Z,4.2598
2024-03-26T00:59:22.161Z,4.2436
2024-03-26T01:00:24.840Z,4.2322
2024-03-26T01:01:27.531Z,4.2307
2024-03-26T01:02:30.385Z,4.2336
2024-03-26T01:03:33.051Z,4.2306
2024-03-26T01:04:35.776Z,4.2232
2024-03-26T01:05:38.445Z,4.2124
2024-03-26T01:06:41.217Z,4.1997
2024-03-26T01:07:43.906Z,4.1864
2024-03-26T01:08:46.589Z,4.1696
2024-03-26T01:09:49.304Z,4.1476
2024-03-26T01:10:52.176Z,4.1354
2024-03-26T01:11:54.871Z,4.1288
2024-03-26T01:12:57.590Z,4.1226
2024-03-26T01:14:00.252Z,4.1130
2024-03-26T01:15:03.014Z,4.1003
2024-03-26T01:16:05.702Z,4.0855
2024-03-26T01:17:08.445Z,4.0743
2024-03-26T01:18:11.078Z,4.0670
2024-03-26T01:19:13.916Z,4.0627
2024-03-26T01:20:16.891Z,4.0567
2024-03-26T01:21:22.866Z,4.0502
2024-03-26T01:22:22.784Z,4.0480
2024-03-26T01:23:25.440Z,4.0442
2024-03-26T01:24:28.185Z,4.0331
2024-03-26T01:25:31.077Z,4.0199
2024-03-26T01:26:33.858Z,4.0129
2024-03-26T01:27:36.586Z,4.0109
2024-03-26T01:28:39.300Z,4.0151
2024-03-26T01:29:41.969Z,4.0266
2024-03-26T01:30:44.721Z,4.0349
2024-03-26T01:31:47.466Z,4.0446
2024-03-26T01:32:50.217Z,4.0523
2024-03-26T01:33:52.905Z,4.0556
2024-03-26T01:34:55.918Z,4.0545
2024-03-26T01:35:58.670Z,4.0534
2024-03-26T01:37:01.383Z,4.0520
2024-03-26T01:38:04.019Z,4.0469
2024-03-26T01:39:06.794Z,4.0381
2024-03-26T01:40:09.544Z,4.0280
2024-03-26T01:41:12.246Z,4.0198
2024-03-26T01:42:14.984Z,4.0154
2024-03-26T01:43:17.668Z,4.0164
2024-03-26T01:44:20.430Z,4.0159
2024-03-26T01:45:23.137Z,4.0143
2024-03-26T01:46:25.857Z,4.0132
2024-03-26T01:47:28.535Z,4.0118
2024-03-26T01:48:31.309Z,4.0130
2024-03-26T01:49:34.017Z,4.0125
2024-03-26T01:50:36.789Z,4.0115
2024-03-26T01:51:39.522Z,4.0071
2024-03-26T01:52:42.197Z,4.0030
2024-03-26T01:53:44.963Z,3.9996
2024-03-26T01:54:47.698Z,3.9989
2024-03-26T01:55:50.365Z,3.9937
2024-03-26T01:56:53.063Z,3.9867
2024-03-26T01:57:55.732Z,3.9812
2024-03-26T01:58:58.429Z,3.9751
2024-03-26T02:00:01.145Z,3.9700
2024-03-26T02:01:03.941Z,3.9626
2024-03-26T02:02:06.651Z,3.9531
2024-03-26T02:03:09.318Z,3.9413
2024-03-26T02:04:12.102Z,3.9253
2024-03-26T02:05:14.822Z,3.9121
2024-03-26T02:06:17.533Z,3.9018
2024-03-26T02:07:20.219Z,3.8944
2024-03-26T02:08:22.988Z,3.8891
2024-03-26T02:09:25.699Z,3.8815
2024-03-26T02:10:28.410Z,3.8763
2024-03-26T02:11:31.143Z,3.8715
2024-03-26T02:12:33.873Z,3.8614
2024-03-26T02:13:36.607Z,3.8507
2024-03-26T02:14:39.346Z,3.8438
2024-03-26T02:15:42.078Z,3.8410
2024-03-26T02:16:44.802Z,3.8364
2024-03-26T02:17:47.566Z,3.8309
2024-03-26T02:18:50.224Z,3.8280
2024-03-26T02:19:52.960Z,3.8222
2024-03-26T02:20:55.732Z,3.8181
2024-03-26T02:21:58.478Z,3.8174
2024-03-26T02:23:01.188Z,3.8102
2024-03-26T02:24:04.134Z,3.8081
2024-03-26T02:25:06.820Z,3.8101
2024-03-26T02:26:09.558Z,3.8114
2024-03-26T02:27:12.255Z,3.8092
2024-03-26T02:28:14.970Z,3.8110
2024-03-26T02:29:17.742Z,3.8157
2024-03-26T02:30:20.427Z,3.8240
2024-03-26T02:31:23.138Z,3.8332
2024-03-26T02:32:25.962Z,3.8373
2024-03-26T02:33:28.655Z,3.8394
2024-03-26T02:34:31.405Z,3.8409
2024-03-26T02:35:34.131Z,3.8402
2024-03-26T02:36:36.854Z,3.8474
2024-03-26T02:37:39.581Z,3.8559
2024-03-26T02:38:42.358Z,3.8642
2024-03-26T02:39:45.160Z,3.8696
2024-03-26T02:40:47.939Z,3.8744
2024-03-26T02:41:50.717Z,3.8819
2024-03-26T02:42:53.448Z,3.8896
2024-03-26T02:43:56.228Z,3.8967
2024-03-26T02:44:58.963Z,3.9036
2024-03-26T02:46:01.852Z,3.9111
2024-03-26T02:47:04.586Z,3.9197
2024-03-26T02:48:07.324Z,3.9230
2024-03-26T02:49:10.011Z,3.9252
2024-03-26T02:50:12.742Z,3.9310
2024-03-26T02:51:15.458Z,3.9371
2024-03-26T02:52:18.173Z,3.9494
2024-03-26T02:53:20.958Z,3.9625
2024-03-26T02:54:23.675Z,3.9756
2024-03-26T02:55:26.569Z,3.9858
2024-03-26T02:56:29.372Z,3.9946
2024-03-26T02:57:32.113Z,4.0006
2024-03-26T02:58:34.850Z,4.0069
2024-03-26T02:59:37.668Z,4.0102
2024-03-26T03:00:40.556Z,4.0125
2024-03-26T03:01:43.297Z,4.0151
2024-03-26T03:02:47.255Z,4.0146
2024-03-26T03:03:47.137Z,4.0052
2024-03-26T03:04:49.977Z,3.9948
2024-03-26T03:05:52.719Z,3.9820
2024-03-26T03:06:55.425Z,3.9687
2024-03-26T03:07:58.154Z,3.9517
2024-03-26T03:09:00.937Z,3.9352
2024-03-26T03:10:03.751Z,3.9213
2024-03-26T03:11:06.482Z,3.9088
2024-03-26T03:12:09.217Z,3.8987
2024-03-26T03:13:11.996Z,3.8964
2024-03-26T03:14:14.777Z,3.8914
2024-03-26T03:15:17.515Z,3.8839
2024-03-26T03:16:20.244Z,3.8852
2024-03-26T03:17:23.041Z,3.8926
2024-03-26T03:18:25.854Z,3.8977
2024-03-26T03:19:28.578Z,3.9018
2024-03-26T03:20:31.321Z,3.9063
2024-03-26T03:21:34.068Z,3.9123
2024-03-26T03:22:36.840Z,3.9180
2024-03-26T03:23:39.773Z,3.9238
2024-03-26T03:24:42.497Z,3.9302
2024-03-26T03:25:45.262Z,3.9358
2024-03-26T03:26:48.011Z,3.9414
2024-03-26T03:27:50.724Z,3.9533
2024-03-26T03:28:53.437Z,3.9673
2024-03-26T03:29:56.177Z,3.9833
2024-03-26T03:30:58.968Z,4.0004
2024-03-26T03:32:01.696Z,4.0214
2024-03-26T03:33:04.580Z,4.0447
2024-03-26T03:34:07.285Z,4.0655
2024-03-26T03:35:10.040Z,4.0856
2024-03-26T03:36:12.722Z,4.1035
2024-03-26T03:37:15.464Z,4.1207
2024-03-26T03:38:18.165Z,4.1413
2024-03-26T03:39:20.899Z,4.1631
2024-03-26T03:40:23.603Z,4.1854
2024-03-26T03:41:26.340Z,4.2121
2024-03-26T03:42:29.045Z,4.2412
2024-03-26T03:43:31.778Z,4.2708
2024-03-26T03:44:34.495Z,4.2976
2024-03-26T03:45:37.479Z,4.3192
2024-03-26T03:46:40.245Z,4.3384
2024-03-26T03:47:42.988Z,4.3633
2024-03-26T03:48:45.680Z,4.3868
2024-03-26T03:49:48.393Z,4.4099
2024-03-26T03:50:51.242Z,4.4262
2024-03-26T03:51:53.962Z,4.4366
2024-03-26T03:52:56.692Z,4.4489
2024-03-26T03:53:59.420Z,4.4638
2024-03-26T03:55:02.338Z,4.4780
2024-03-26T03:56:05.057Z,4.4914
2024-03-26T03:57:07.785Z,4.5028
2024-03-26T03:58:10.831Z,4.5136
2024-03-26T03:59:13.531Z,4.5210
2024-03-26T04:00:16.272Z,4.5255
2024-03-26T04:01:18.968Z,4.5269
2024-03-26T04:02:21.693Z,4.5241
2024-03-26T04:03:24.460Z,4.5209
2024-03-26T04:04:27.228Z,4.5154
2024-03-26T04:05:29.955Z,4.5054
2024-03-26T04:06:32.731Z,4.4976
2024-03-26T04:07:35.620Z,4.4867
2024-03-26T04:08:38.336Z,4.4756
2024-03-26T04:09:41.048Z,4.4699
2024-03-26T04:10:43.767Z,4.4670
2024-03-26T04:11:46.485Z,4.4652
2024-03-26T04:12:49.299Z,4.4656
2024-03-26T04:13:52.014Z,4.4699
2024-03-26T04:14:54.749Z,4.4740
2024-03-26T04:15:57.696Z,4.4812
2024-03-26T04:17:00.426Z,4.4850
2024-03-26T04:18:03.207Z,4.4885
2024-03-26T04:19:05.977Z,4.4926
2024-03-26T04:20:08.717Z,4.4925
2024-03-26T04:21:11.402Z,4.4869
2024-03-26T04:22:14.140Z,4.4787
2024-03-26T04:23:16.912Z,4.4651
2024-03-26T04:24:19.776Z,4.4499
2024-03-26T04:25:22.593Z,4.4368
2024-03-26T04:26:25.322Z,4.4234
2024-03-26T04:27:28.060Z,4.4092
2024-03-26T04:28:30.808Z,4.3970
2024-03-26T04:29:33.548Z,4.3810
2024-03-26T04:30:36.395Z,4.3621
2024-03-26T04:31:39.142Z,4.3350
2024-03-26T04:32:41.860Z,4.3130
2024-03-26T04:33:44.591Z,4.2946
2024-03-26T04:34:47.271Z,4.2760
2024-03-26T04:35:50.038Z,4.2534
2024-03-26T04:36:52.723Z,4.2319
2024-03-26T04:37:55.457Z,4.2103
2024-03-26T04:38:58.484Z,4.1878
2024-03-26T04:40:01.253Z,4.1643
2024-03-26T04:41:04.007Z,4.1405
2024-03-26T04:42:06.748Z,4.1237
2024-03-26T04:43:09.455Z,4.1097
2024-03-26T04:44:12.207Z,4.0965
2024-03-26T04:45:14.944Z,4.0803
2024-03-26T04:46:17.667Z,4.0669
2024-03-26T04:47:20.605Z,4.0568
2024-03-26T04:48:23.379Z,4.0523
2024-03-26T04:49:26.086Z,4.0456
2024-03-26T04:50:28.887Z,4.0368
2024-03-26T04:51:31.774Z,4.0243
2024-03-26T04:52:34.520Z,4.0126
2024-03-26T04:53:37.342Z,4.0027
2024-03-26T04:54:40.251Z,3.9918
2024-03-26T04:55:42.964Z,3.9828
2024-03-26T04:56:45.684Z,3.9750
2024-03-26T04:57:48.412Z,3.9689
2024-03-26T04:58:51.151Z,3.9656
2024-03-26T04:59:53.860Z,3.9610
2024-03-26T05:00:56.577Z,3.9504
2024-03-26T05:01:59.376Z,3.9387
2024-03-26T05:03:02.135Z,3.9317
2024-03-26T05:04:04.876Z,3.9242
2024-03-26T05:05:07.618Z,3.9110
2024-03-26T05:06:10.430Z,3.8981
2024-03-26T05:07:13.154Z,3.8855
2024-03-26T05:08:15.946Z,3.8634
2024-03-26T05:09:18.649Z,3.8405
2024-03-26T05:10:21.397Z,3.8211
2024-03-26T05:11:24.154Z,3.8077
2024-03-26T05:12:27.220Z,3.7966
2024-03-26T05:13:29.925Z,3.7868
2024-03-26T05:14:32.890Z,3.7721
2024-03-26T05:15:35.612Z,3.7511
2024-03-26T05:16:38.379Z,3.7346
2024-03-26T05:17:41.118Z,3.7263
2024-03-26T05:18:43.852Z,3.7186
2024-03-26T05:19:46.584Z,3.7108
2024-03-26T05:20:49.348Z,3.7030
2024-03-26T05:21:52.196Z,3.7007
2024-03-26T05:22:55.009Z,3.7047
2024-03-26T05:23:57.755Z,3.7028
2024-03-26T05:25:00.503Z,3.7006
2024-03-26T05:26:03.456Z,3.6967
2024-03-26T05:27:06.239Z,3.7020
2024-03-26T05:28:08.967Z,3.7050
2024-03-26T05:29:11.776Z,3.7062
2024-03-26T05:30:14.478Z,3.7013
2024-03-26T05:31:17.159Z,3.7004
2024-03-26T05:32:19.845Z,3.7006
2024-03-26T05:33:22.556Z,3.7011
2024-03-26T05:34:25.344Z,3.7026
2024-03-26T05:35:28.271Z,3.7044
2024-03-26T05:36:30.971Z,3.7050
2024-03-26T05:37:33.669Z,3.6988
2024-03-26T05:38:36.442Z,3.6893
2024-03-26T05:39:39.085Z,3.6878
2024-03-26T05:40:41.860Z,3.6912
2024-03-26T05:41:44.536Z,3.7013
2024-03-26T05:42:47.291Z,3.7138
2024-03-26T05:43:50.028Z,3.7235
2024-03-26T05:44:52.793Z,3.7325
2024-03-26T05:45:55.436Z,3.7400
2024-03-26T05:46:58.177Z,3.7458
2024-03-26T05:48:00.900Z,3.7525
2024-03-26T05:49:03.622Z,3.7627
2024-03-26T05:50:06.303Z,3.7743
2024-03-26T05:51:09.037Z,3.7863
2024-03-26T05:52:11.778Z,3.7975
2024-03-26T05:53:14.500Z,3.8120
2024-03-26T05:54:17.186Z,3.8280
2024-03-26T05:55:19.937Z,3.8438
2024-03-26T05:56:22.993Z,3.8584
2024-03-26T05:57:25.694Z,3.8755
2024-03-26T05:58:28.422Z,3.8884
2024-03-26T05:59:31.124Z,3.8994
2024-03-26T06:00:33.891Z,3.9150
2024-03-26T06:01:36.587Z,3.9320
2024-03-26T06:02:39.359Z,3.9510
2024-03-26T06:03:42.054Z,3.9729
2024-03-26T06:04:44.739Z,3.9945
2024-03-26T06:05:47.570Z,4.0210
2024-03-26T06:06:50.254Z,4.0507
2024-03-26T06:07:52.916Z,4.0750
2024-03-26T06:08:55.690Z,4.0935
2024-03-26T06:09:58.347Z,4.1029
2024-03-26T06:11:01.058Z,4.1115
2024-03-26T06:12:03.741Z,4.1257
2024-03-26T06:13:07.785Z,4.1409
2024-03-26T06:14:07.084Z,4.1549
2024-03-26T06:15:09.786Z,4.1693
2024-03-26T06:16:12.474Z,4.1818
2024-03-26T06:17:15.146Z,4.1979
2024-03-26T06:18:17.809Z,4.2173
2024-03-26T06:19:20.585Z,4.2288
2024-03-26T06:20:23.250Z,4.2372
2024-03-26T06:21:25.997Z,4.2441
2024-03-26T06:22:28.762Z,4.2472
2024-03-26T06:23:31.528Z,4.2487
2024-03-26T06:24:34.173Z,4.2482
2024-03-26T06:25:36.869Z,4.2489
2024-03-26T06:26:39.613Z,4.2636
2024-03-26T06:27:42.288Z,4.2861
2024-03-26T06:28:45.056Z,4.3044
2024-03-26T06:29:47.782Z,4.3313
2024-03-26T06:30:50.491Z,4.3717
2024-03-26T06:31:53.234Z,4.4100
2024-03-26T06:32:55.987Z,4.4552
2024-03-26T06:33:58.678Z,4.5020
2024-03-26T06:35:01.373Z,4.5452
2024-03-26T06:36:04.100Z,4.5901
2024-03-26T06:37:06.805Z,4.6356
2024-03-26T06:38:09.880Z,4.6776
2024-03-26T06:39:12.625Z,4.7263
2024-03-26T06:40:15.319Z,4.7804
2024-03-26T06:41:17.996Z,4.8401
2024-03-26T06:42:20.746Z,4.8903
2024-03-26T06:43:23.459Z,4.9413
2024-03-26T06:44:26.231Z,4.9972
2024-03-26T06:45:29.223Z,5.0399
2024-03-26T06:46:31.918Z,5.0786
2024-03-26T06:47:34.650Z,5.1260
2024-03-26T06:48:37.387Z,5.1845
2024-03-26T06:49:40.147Z,5.2395
2024-03-26T06:50:42.836Z,5.2903
2024-03-26T06:51:46.135Z,5.3429
2024-03-26T06:52:48.926Z,5.4021
2024-03-26T06:53:51.608Z,5.4703
2024-03-26T06:54:54.352Z,5.5297
2024-03-26T06:55:57.076Z,5.5847
2024-03-26T06:56:59.780Z,5.6401
2024-03-26T06:58:02.558Z,5.6950
2024-03-26T06:59:05.212Z,5.7458
2024-03-26T07:00:07.922Z,5.7927
2024-03-26T07:01:10.591Z,5.8439
2024-03-26T07:02:13.390Z,5.8929
2024-03-26T07:03:16.142Z,5.9368
2024-03-26T07:04:18.817Z,5.9733
2024-03-26T07:05:21.536Z,6.0052
2024-03-26T07:06:24.256Z,6.0319
2024-03-26T07:07:26.993Z,6.0596
2024-03-26T07:08:29.687Z,6.0897
2024-03-26T07:09:32.362Z,6.1176
2024-03-26T07:10:35.134Z,6.1379
2024-03-26T07:11:37.868Z,6.1583
2024-03-26T07:12:40.557Z,6.1728
2024-03-26T07:13:43.232Z,6.1857
2024-03-26T07:14:46.036Z,6.1989
2024-03-26T07:15:48.820Z,6.1992
2024-03-26T07:16:51.478Z,6.2002
2024-03-26T07:17:54.209Z,6.2002
2024-03-26T07:18:56.873Z,6.2007
2024-03-26T07:19:59.631Z,6.2084
2024-03-26T07:21:02.340Z,6.2190
2024-03-26T07:22:05.115Z,6.2196
2024-03-26T07:23:07.754Z,6.2141
2024-03-26T07:24:10.503Z,6.2041
2024-03-26T07:25:13.241Z,6.1960
2024-03-26T07:26:15.960Z,6.1945
2024-03-26T07:27:18.663Z,6.1922
2024-03-26T07:28:21.374Z,6.1925
2024-03-26T07:29:24.099Z,6.1978
2024-03-26T07:30:26.844Z,6.2011
2024-03-26T07:31:29.511Z,6.2016
2024-03-26T07:32:32.223Z,6.2090
2024-03-26T07:33:34.985Z,6.2299
2024-03-26T07:34:37.723Z,6.2662
2024-03-26T07:35:40.443Z,6.3077
2024-03-26T07:36:43.162Z,6.3470
2024-03-26T07:37:45.859Z,6.3925
2024-03-26T07:38:48.591Z,6.4364
2024-03-26T07:39:51.277Z,6.4843
2024-03-26T07:40:53.998Z,6.5524
2024-03-26T07:41:56.743Z,6.6420
2024-03-26T07:43:01.417Z,6.7394
2024-03-26T07:43:59.419Z,6.8255
2024-03-26T07:45:02.536Z,6.9001
2024-03-26T07:46:05.208Z,6.9913
2024-03-26T07:47:08.098Z,7.0925
2024-03-26T07:48:10.857Z,7.1856
2024-03-26T07:49:13.561Z,7.2704
2024-03-26T07:50:16.302Z,7.3624
2024-03-26T07:51:19.646Z,7.4638
2024-03-26T07:52:19.545Z,7.5698
2024-03-26T07:53:22.333Z,7.6795
2024-03-26T07:54:24.947Z,7.7853
2024-03-26T07:55:27.688Z,7.8927
2024-03-26T07:56:30.389Z,7.9902
2024-03-26T07:57:33.115Z,8.0814
2024-03-26T07:58:35.786Z,8.1731
2024-03-26T07:59:38.533Z,8.2799
2024-03-26T08:00:41.323Z,8.3846
2024-03-26T08:01:44.263Z,8.4860
2024-03-26T08:02:46.948Z,8.5975
2024-03-26T08:03:49.712Z,8.7217
2024-03-26T08:04:52.414Z,8.8480
2024-03-26T08:05:55.220Z,8.9724
2024-03-26T08:06:57.941Z,9.0703
2024-03-26T08:08:00.878Z,9.1287
2024-03-26T08:09:03.612Z,9.1673
2024-03-26T08:10:06.399Z,9.1849
2024-03-26T08:11:09.381Z,9.1979
2024-03-26T08:12:12.050Z,9.2107
2024-03-26T08:13:14.823Z,9.2190
2024-03-26T08:14:17.581Z,9.2263
2024-03-26T08:15:20.303Z,9.2372
2024-03-26T08:16:23.032Z,9.2500
2024-03-26T08:17:25.735Z,9.2617
2024-03-26T08:18:28.493Z,9.2781
2024-03-26T08:19:31.630Z,9.3034
2024-03-26T08:20:31.383Z,9.3384
2024-03-26T08:21:34.079Z,9.3747
2024-03-26T08:22:36.761Z,9.4073
2024-03-26T08:23:39.480Z,9.4290
2024-03-26T08:24:42.240Z,9.4270
2024-03-26T08:25:44.940Z,9.4224
2024-03-26T08:26:47.636Z,9.4326
2024-03-26T08:27:50.341Z,9.4433
2024-03-26T08:28:53.069Z,9.4559
2024-03-26T08:29:55.777Z,9.4581
2024-03-26T08:30:58.519Z,9.4652
2024-03-26T08:32:01.218Z,9.4900
2024-03-26T08:33:04.408Z,9.5437
2024-03-26T08:34:07.142Z,9.6018
2024-03-26T08:35:09.859Z,9.6575
2024-03-26T08:36:13.017Z,9.7181
2024-03-26T08:37:12.670Z,9.7816
2024-03-26T08:38:15.355Z,9.8451
2024-03-26T08:39:18.055Z,9.9063
2024-03-26T08:40:20.941Z,9.9479
2024-03-26T08:41:23.793Z,9.9747
2024-03-26T08:42:26.519Z,10.0033
2024-03-26T08:43:29.285Z,10.0283
2024-03-26T08:44:32.351Z,10.0498
2024-03-26T08:45:35.019Z,10.0668
2024-03-26T08:46:37.706Z,10.0877
2024-03-26T08:47:40.428Z,10.1052
2024-03-26T08:48:43.152Z,10.1114
2024-03-26T08:49:45.860Z,10.1011
2024-03-26T08:50:48.606Z,10.0833
2024-03-26T08:51:52.202Z,10.0699
2024-03-26T08:52:51.571Z,10.0682
2024-03-26T08:53:54.279Z,10.0743
2024-03-26T08:54:56.979Z,10.0938
2024-03-26T08:56:08.565Z,10.1155
2024-03-26T08:57:01.407Z,10.1325
2024-03-26T08:58:04.058Z,10.1425
2024-03-26T08:59:06.806Z,10.1577
2024-03-26T09:00:09.557Z,10.1904
2024-03-26T09:01:12.279Z,10.2324
2024-03-26T09:02:14.992Z,10.2927
2024-03-26T09:03:17.772Z,10.3568
2024-03-26T09:04:21.934Z,10.4144
2024-03-26T09:05:22.608Z,10.4800
2024-03-26T09:06:25.299Z,10.5503
2024-03-26T09:07:28.206Z,10.6337
2024-03-26T09:08:31.000Z,10.7249
2024-03-26T09:09:33.696Z,10.8333
2024-03-26T09:10:36.431Z,10.9494
2024-03-26T09:11:39.146Z,11.0736
2024-03-26T09:12:41.865Z,11.2080
2024-03-26T09:13:45.019Z,11.3469
2024-03-26T09:14:47.692Z,11.4835
2024-03-26T09:15:50.482Z,11.6186
2024-03-26T09:16:53.192Z,11.7527
2024-03-26T09:17:55.922Z,11.8823
2024-03-26T09:19:01.701Z,12.0276
2024-03-26T09:20:01.641Z,12.1821
2024-03-26T09:21:04.366Z,12.2924
2024-03-26T09:22:07.316Z,12.3874
2024-03-26T09:23:10.026Z,12.4845
2024-03-26T09:24:12.719Z,12.5467
2024-03-26T09:25:15.460Z,12.5914
2024-03-26T09:26:18.195Z,12.6167
2024-03-26T09:27:20.922Z,12.6652
2024-03-26T09:28:23.692Z,12.7422
2024-03-26T09:29:26.365Z,12.8498
2024-03-26T09:30:29.377Z,12.9687
2024-03-26T09:31:32.141Z,13.0947
2024-03-26T09:32:34.830Z,13.2313
2024-03-26T09:33:37.597Z,13.3549
2024-03-26T09:34:40.332Z,13.4951
2024-03-26T09:35:43.308Z,13.6865
2024-03-26T09:36:46.158Z,13.9435
2024-03-26T09:37:49.941Z,14.2297
2024-03-26T09:38:51.048Z,14.4949
2024-03-26T09:39:51.748Z,14.7210
2024-03-26T09:40:54.555Z,14.9287
2024-03-26T09:41:57.439Z,15.1251
2024-03-26T09:43:00.167Z,15.2594
2024-03-26T09:44:03.050Z,15.3745
2024-03-26T09:45:06.857Z,15.4140
2024-03-26T09:46:06.659Z,15.3764
2024-03-26T09:47:09.377Z,15.3110
2024-03-26T09:48:12.096Z,15.2387
2024-03-26T09:49:14.830Z,15.1695
2024-03-26T09:50:17.628Z,15.1130
2024-03-26T09:51:20.571Z,15.0674
2024-03-26T09:52:23.331Z,15.0428
2024-03-26T09:53:26.068Z,15.0365
2024-03-26T09:54:28.996Z,15.0400
2024-03-26T09:55:31.805Z,15.0486
2024-03-26T09:56:34.528Z,15.0697
2024-03-26T09:57:37.274Z,15.0904
2024-03-26T09:58:40.289Z,15.1171
2024-03-26T09:59:43.093Z,15.1622
2024-03-26T10:00:45.834Z,15.2159
2024-03-26T10:01:48.548Z,15.2604
2024-03-26T10:02:51.454Z,15.2870
2024-03-26T10:03:54.509Z,15.3027
2024-03-26T10:04:57.244Z,15.3188
2024-03-26T10:06:00.097Z,15.3241
2024-03-26T10:07:02.982Z,15.3000
2024-03-26T10:08:05.715Z,15.2708
2024-03-26T10:09:08.735Z,15.2403
2024-03-26T10:10:11.488Z,15.2103
2024-03-26T10:11:14.273Z,15.1910
2024-03-26T10:12:17.243Z,15.1619
2024-03-26T10:13:20.003Z,15.1399
2024-03-26T10:14:22.771Z,15.1369
2024-03-26T10:15:25.700Z,15.1561
2024-03-26T10:16:28.426Z,15.1812
2024-03-26T10:17:33.250Z,15.2143
2024-03-26T10:18:32.854Z,15.2608
2024-03-26T10:19:35.608Z,15.3133
2024-03-26T10:20:38.412Z,15.3558
2024-03-26T10:21:41.373Z,15.3845
2024-03-26T10:22:44.108Z,15.4083
2024-03-26T10:23:46.901Z,15.4132
2024-03-26T10:24:49.858Z,15.4207
2024-03-26T10:25:52.572Z,15.4347
2024-03-26T10:26:55.381Z,15.4572
2024-03-26T10:27:58.097Z,15.4878
2024-03-26T10:29:01.082Z,15.5284
2024-03-26T10:30:03.886Z,15.5575
2024-03-26T10:31:06.653Z,15.5721
2024-03-26T10:32:09.629Z,15.5638
2024-03-26T10:33:12.560Z,15.5456
2024-03-26T10:34:15.245Z,15.5308
2024-03-26T10:35:18.021Z,15.5169
2024-03-26T10:36:20.815Z,15.5088
2024-03-26T10:37:23.548Z,15.5063
2024-03-26T10:38:26.487Z,15.5036
2024-03-26T10:39:29.285Z,15.5052
2024-03-26T10:40:32.021Z,15.5066
2024-03-26T10:41:34.935Z,15.5137
2024-03-26T10:42:37.968Z,15.5261
2024-03-26T10:43:40.695Z,15.5381
2024-03-26T10:44:43.704Z,15.5367
2024-03-26T10:45:59.960Z,15.5161
2024-03-26T10:46:49.399Z,15.4846
2024-03-26T10:47:48.938Z,15.4523
2024-03-26T10:48:57.495Z,15.4091
2024-03-26T10:49:53.414Z,15.3579
2024-03-26T10:50:56.625Z,15.3030
2024-03-26T10:51:59.377Z,15.2529
2024-03-26T10:53:02.296Z,15.1970
2024-03-26T10:54:05.103Z,15.1373
2024-03-26T10:55:07.830Z,15.0916
2024-03-26T10:56:10.714Z,15.0595
2024-03-26T10:57:13.478Z,15.0208
2024-03-26T10:58:16.201Z,14.9796
2024-03-26T10:59:18.979Z,14.9506
2024-03-26T11:00:21.946Z,14.9288
2024-03-26T11:01:24.666Z,14.9150
2024-03-26T11:02:27.396Z,14.9193
2024-03-26T11:03:30.106Z,14.9407
2024-03-26T11:04:32.831Z,14.9975
2024-03-26T11:05:35.861Z,15.1121
2024-03-26T11:06:38.606Z,15.2931
2024-03-26T11:07:41.577Z,15.5097
2024-03-26T11:08:44.360Z,15.7294
2024-03-26T11:09:47.115Z,15.9505
2024-03-26T11:10:52.500Z,16.1682
2024-03-26T11:11:52.099Z,16.3951
2024-03-26T11:12:54.890Z,16.6071
2024-03-26T11:13:57.639Z,16.8193
2024-03-26T11:15:00.454Z,17.0454
2024-03-26T11:16:03.799Z,17.2861
2024-03-26T11:17:04.044Z,17.5358
2024-03-26T11:18:06.936Z,17.8075
2024-03-26T11:19:09.727Z,18.1143
2024-03-26T11:20:12.668Z,18.4250
2024-03-26T11:21:15.396Z,18.7229
2024-03-26T11:22:18.459Z,18.9754
2024-03-26T11:23:21.258Z,19.1903
2024-03-26T11:24:23.998Z,19.3656
2024-03-26T11:25:26.788Z,19.4985
2024-03-26T11:26:29.657Z,19.6075
2024-03-26T11:27:32.676Z,19.7174
2024-03-26T11:28:35.391Z,19.8363
2024-03-26T11:29:38.302Z,19.9413
2024-03-26T11:30:41.157Z,20.0282
2024-03-26T11:31:43.956Z,20.1283
2024-03-26T11:32:46.707Z,20.2471
2024-03-26T11:33:49.631Z,20.3748
2024-03-26T11:34:52.459Z,20.5011
2024-03-26T11:35:55.202Z,20.6134
2024-03-26T11:36:58.108Z,20.7329
2024-03-26T11:38:03.485Z,20.8569
2024-03-26T11:39:03.087Z,20.9867
2024-03-26T11:40:06.024Z,21.1073
2024-03-26T11:41:08.984Z,21.2287
2024-03-26T11:42:11.867Z,21.3375
2024-03-26T11:43:14.762Z,21.4401
2024-03-26T11:44:17.554Z,21.5435
2024-03-26T11:45:20.518Z,21.6565
2024-03-26T11:46:23.267Z,21.7685
2024-03-26T11:47:26.101Z,21.8881
2024-03-26T11:48:28.844Z,21.9958
2024-03-26T11:49:31.762Z,22.0725
2024-03-26T11:50:34.536Z,22.1169
2024-03-26T11:51:37.869Z,22.1520
2024-03-26T11:52:38.301Z,22.1739
2024-03-26T11:53:41.310Z,22.1938
2024-03-26T11:54:44.118Z,22.2135
2024-03-26T11:55:47.085Z,22.2378
2024-03-26T11:56:49.848Z,22.2614
2024-03-26T11:57:52.625Z,22.2696
2024-03-26T11:58:55.578Z,22.2878
2024-03-26T11:59:58.326Z,22.3089
2024-03-26T12:01:01.099Z,22.3357
2024-03-26T12:02:03.839Z,22.3625
2024-03-26T12:03:06.796Z,22.3788
2024-03-26T12:04:09.524Z,22.3819
2024-03-26T12:05:12.527Z,22.3720
2024-03-26T12:06:15.245Z,22.3442
2024-03-26T12:07:17.996Z,22.3220
2024-03-26T12:08:20.749Z,22.3250
2024-03-26T12:09:23.545Z,22.3452
2024-03-26T12:10:26.317Z,22.3599
2024-03-26T12:11:29.191Z,22.3772
2024-03-26T12:12:31.879Z,22.4047
2024-03-26T12:13:34.607Z,22.4154
2024-03-26T12:14:37.345Z,22.4419
2024-03-26T12:15:40.374Z,22.4838
2024-03-26T12:16:43.331Z,22.5466
2024-03-26T12:17:46.230Z,22.6061
2024-03-26T12:18:48.969Z,22.6378
2024-03-26T12:19:51.882Z,22.6545
2024-03-26T12:20:54.946Z,22.6696
2024-03-26T12:21:57.693Z,22.6762
2024-03-26T12:23:00.492Z,22.6651
2024-03-26T12:24:03.272Z,22.6472
2024-03-26T12:25:06.166Z,22.6264
2024-03-26T12:26:08.910Z,22.6077
2024-03-26T12:27:11.844Z,22.5604
2024-03-26T12:28:14.649Z,22.5028
2024-03-26T12:29:17.399Z,22.4914
2024-03-26T12:30:20.404Z,22.5181
2024-03-26T12:31:23.325Z,22.5562
2024-03-26T12:32:26.124Z,22.5777
2024-03-26T12:33:28.949Z,22.5760
2024-03-26T12:34:31.871Z,22.5846
2024-03-26T12:35:34.624Z,22.6091
2024-03-26T12:36:37.460Z,22.6324
2024-03-26T12:37:40.390Z,22.6588
2024-03-26T12:38:43.128Z,22.6678
2024-03-26T12:39:46.109Z,22.6646
2024-03-26T12:40:48.949Z,22.6671
2024-03-26T12:41:51.696Z,22.6487
2024-03-26T12:42:54.611Z,22.6180
2024-03-26T12:43:57.330Z,22.5874
2024-03-26T12:45:00.167Z,22.5450
2024-03-26T12:46:02.974Z,22.4701
2024-03-26T12:47:05.825Z,22.3301
2024-03-26T12:48:08.649Z,22.1233
2024-03-26T12:49:11.568Z,21.9147
2024-03-26T12:50:14.392Z,21.7263
2024-03-26T12:51:17.145Z,21.5739
2024-03-26T12:52:20.041Z,21.4835
2024-03-26T12:53:22.766Z,21.4544
2024-03-26T12:54:25.816Z,21.4721